Terminal Aerodrome Forecast
Issued by NWS Missoula, MT

Home | Current Version | Previous Version | Text Only | Print | Product List | Glossary On
Versions: 1 2 3 4 5 6 7 8 9 10 11 12 13 14 15 16 17 18 19 20 21 22 23 24 25 26 27 28 29 30
000
FTUS45 KMSO 301851 AAA
TAFBTM
TAF AMD
KBTM 301851Z 3019/0118 17005KT P6SM -RA SCT014 BKN035 OVC045
     FM010200 09013G23KT P6SM VCSH BKN060
     FM010600 20006KT P6SM SCT100=

USA.gov is the U.S. government's official web portal to all federal, state and local government web resources and services.